Time;durP1;ratioP1;P1;durP2;ratioP2;P2;SDS_P1;SDS_P2;PMS_P1;PMS_P2;Temp;Humidity;BMP_temperature;BMP_pressure;BME280_temperature;BME280_humidity;BME280_pressure;Samples;Min_cycle;Max_cycle;Signal;HPM_P1;HPM_P2
2021/08/14 00:00:50;;;;;;;11.00;9.90;;;16.40;99.90;;;;;;5093103;28;20239;-67
2021/08/14 00:03:16;;;;;;;15.27;10.77;;;16.30;99.90;;;;;;5092990;28;20596;-67
2021/08/14 00:05:41;;;;;;;11.80;10.37;;;16.30;99.90;;;;;;5093429;28;20261;-67
2021/08/14 00:08:07;;;;;;;11.53;10.23;;;16.10;99.90;;;;;;5092876;28;20178;-67
2021/08/14 00:10:33;;;;;;;11.03;9.97;;;16.20;99.90;;;;;;5092901;28;20208;-66
2021/08/14 00:12:58;;;;;;;12.13;11.03;;;16.10;99.90;;;;;;5091556;28;20637;-68
2021/08/14 00:15:24;;;;;;;10.30;9.30;;;16.10;99.90;;;;;;5092998;28;20177;-67
2021/08/14 00:17:50;;;;;;;11.20;10.17;;;16.10;99.90;;;;;;5092771;28;20237;-67
2021/08/14 00:20:15;;;;;;;14.23;11.63;;;15.90;99.90;;;;;;5092539;28;20192;-67
2021/08/14 00:22:41;;;;;;;11.57;10.37;;;16.00;99.90;;;;;;5091924;28;20177;-66
2021/08/14 00:25:08;;;;;;;11.37;10.27;;;15.90;99.90;;;;;;5092942;28;20193;-68
2021/08/14 00:27:34;;;;;;;10.67;8.80;;;15.80;99.90;;;;;;5092518;28;20181;-66
2021/08/14 00:29:59;;;;;;;10.90;9.80;;;15.80;99.90;;;;;;5092601;28;20185;-66
2021/08/14 00:32:25;;;;;;;10.70;9.70;;;15.70;99.90;;;;;;5092460;28;20177;-68
2021/08/14 00:34:50;;;;;;;12.67;10.30;;;15.70;99.90;;;;;;5092891;28;20235;-67
2021/08/14 00:37:16;;;;;;;10.50;9.50;;;15.70;99.90;;;;;;5092281;28;20254;-68
2021/08/14 00:39:42;;;;;;;12.47;9.47;;;15.50;99.90;;;;;;5091974;28;20180;-66
2021/08/14 00:42:07;;;;;;;13.33;10.77;;;15.40;99.90;;;;;;5072381;28;20166;-68
2021/08/14 00:44:34;;;;;;;14.23;10.40;;;15.30;99.90;;;;;;5072327;28;20253;-67
2021/08/14 00:47:02;;;;;;;10.77;9.70;;;15.30;99.90;;;;;;5091249;28;20601;-68
2021/08/14 00:49:28;;;;;;;11.73;10.73;;;15.30;99.90;;;;;;5091950;28;20173;-66
2021/08/14 00:51:54;;;;;;;10.87;9.87;;;15.40;99.90;;;;;;5092388;28;20189;-67
2021/08/14 00:54:19;;;;;;;11.73;10.30;;;15.50;99.90;;;;;;5092412;28;20264;-67
2021/08/14 00:56:45;;;;;;;11.70;10.00;;;15.50;99.90;;;;;;5092389;28;20208;-68
2021/08/14 00:59:11;;;;;;;12.07;10.80;;;15.50;99.90;;;;;;5091928;28;20169;-65
2021/08/14 01:01:38;;;;;;;11.40;10.30;;;15.50;99.90;;;;;;5091923;28;20196;-68
2021/08/14 01:04:04;;;;;;;12.33;10.83;;;15.40;99.90;;;;;;5092048;28;20169;-67
2021/08/14 01:06:30;;;;;;;10.77;9.57;;;15.40;99.90;;;;;;5092157;28;20589;-67
2021/08/14 01:08:57;;;;;;;11.27;9.53;;;15.40;99.90;;;;;;5090703;28;20173;-67
2021/08/14 01:11:23;;;;;;;11.90;10.53;;;15.40;99.90;;;;;;5091561;28;20779;-66
2021/08/14 01:13:49;;;;;;;11.93;10.77;;;15.30;99.90;;;;;;5092168;28;20178;-68
2021/08/14 01:16:15;;;;;;;12.40;11.20;;;15.20;99.90;;;;;;5091893;28;20502;-68
2021/08/14 01:18:45;;;;;;;11.00;9.90;;;15.10;99.90;;;;;;5092172;28;20212;-68
2021/08/14 01:21:21;;;;;;;12.27;11.03;;;15.10;99.90;;;;;;5091252;28;20237;-67
2021/08/14 01:23:54;;;;;;;11.27;10.03;;;15.10;99.90;;;;;;5090963;28;20638;-66
2021/08/14 01:26:21;;;;;;;12.33;10.17;;;15.00;99.90;;;;;;5091721;28;20267;-67
2021/08/14 01:28:47;;;;;;;10.97;9.83;;;15.00;99.90;;;;;;5091871;28;20192;-67
2021/08/14 01:31:14;;;;;;;12.60;10.60;;;14.90;99.90;;;;;;5091139;28;20194;-68
2021/08/14 01:33:42;;;;;;;12.43;10.53;;;14.90;99.90;;;;;;5091039;28;20181;-67
2021/08/14 01:36:18;;;;;;;13.33;10.37;;;14.90;99.90;;;;;;5091810;28;20181;-66
2021/08/14 01:38:54;;;;;;;14.40;10.70;;;14.90;99.90;;;;;;5091753;28;20278;-67
2021/08/14 01:41:22;;;;;;;14.67;11.37;;;15.00;99.90;;;;;;5090775;28;20545;-67
2021/08/14 01:44:04;;;;;;;12.20;11.03;;;15.00;99.90;;;;;;5091689;28;20169;-68
2021/08/14 01:46:37;;;;;;;15.47;11.07;;;15.00;99.90;;;;;;5091179;28;20181;-67
2021/08/14 01:49:03;;;;;;;14.03;10.20;;;15.10;99.90;;;;;;5091582;28;20639;-68
2021/08/14 01:51:30;;;;;;;15.63;10.63;;;15.20;99.90;;;;;;5090820;28;20570;-67
2021/08/14 01:53:58;;;;;;;13.23;10.77;;;15.20;99.90;;;;;;5091870;28;20172;-67
2021/08/14 01:56:26;;;;;;;12.47;10.73;;;15.10;99.90;;;;;;5091302;28;20234;-67
2021/08/14 01:58:53;;;;;;;14.20;11.83;;;15.10;99.90;;;;;;5091565;28;20561;-66
2021/08/14 02:01:18;;;;;;;12.67;11.37;;;15.20;99.90;;;;;;5090657;28;20628;-66
2021/08/14 02:03:46;;;;;;;13.40;11.77;;;15.20;99.90;;;;;;5091294;28;20272;-67
2021/08/14 02:06:22;;;;;;;15.37;10.73;;;15.30;99.90;;;;;;5091629;28;20217;-67
2021/08/14 02:08:47;;;;;;;14.73;11.30;;;15.30;99.90;;;;;;5091365;28;20711;-68
2021/08/14 02:11:15;;;;;;;12.17;10.30;;;15.20;99.90;;;;;;5089700;28;20198;-67
2021/08/14 02:13:42;;;;;;;11.70;10.50;;;15.20;99.90;;;;;;5091432;28;20557;-67
2021/08/14 02:16:08;;;;;;;13.10;11.73;;;15.10;99.90;;;;;;5091510;28;20215;-68
2021/08/14 02:18:34;;;;;;;13.20;11.87;;;15.10;99.90;;;;;;5091058;28;20677;-68
2021/08/14 02:21:00;;;;;;;13.60;12.17;;;15.10;99.90;;;;;;5091078;28;20209;-67
2021/08/14 02:23:26;;;;;;;13.37;10.73;;;15.00;99.90;;;;;;5090715;28;20777;-66
2021/08/14 02:25:51;;;;;;;13.37;11.43;;;15.00;99.90;;;;;;5091400;28;20161;-67
2021/08/14 02:28:17;;;;;;;16.63;11.53;;;15.00;99.90;;;;;;5091348;28;20181;-67
2021/08/14 02:30:42;;;;;;;13.70;11.27;;;15.00;99.90;;;;;;5090903;28;20244;-67
2021/08/14 02:33:08;;;;;;;14.27;11.33;;;14.90;99.90;;;;;;5090858;28;20170;-67
2021/08/14 02:35:33;;;;;;;14.00;12.53;;;14.90;99.90;;;;;;5091228;28;20173;-67
2021/08/14 02:37:59;;;;;;;14.10;12.43;;;14.90;99.90;;;;;;5090935;28;20666;-67
2021/08/14 02:40:25;;;;;;;13.20;11.90;;;14.90;99.90;;;;;;5090774;28;20697;-68
2021/08/14 02:42:50;;;;;;;14.57;12.00;;;14.80;99.90;;;;;;5090935;28;20631;-67
2021/08/14 02:45:16;;;;;;;12.83;11.63;;;14.90;99.90;;;;;;5094420;28;20659;-67
2021/08/14 02:47:42;;;;;;;13.00;11.80;;;14.90;99.90;;;;;;5094633;28;20223;-66
2021/08/14 02:50:08;;;;;;;13.50;12.17;;;14.90;99.90;;;;;;5094599;28;20685;-66
2021/08/14 02:52:33;;;;;;;16.93;13.17;;;14.90;99.90;;;;;;5094556;28;20169;-66
2021/08/14 02:54:59;;;;;;;15.43;13.20;;;14.90;99.90;;;;;;5094861;28;20201;-68
2021/08/14 02:57:25;;;;;;;19.63;12.90;;;14.90;99.90;;;;;;5094110;28;20693;-67
2021/08/14 02:59:50;;;;;;;17.83;12.93;;;14.90;99.90;;;;;;5094406;28;20215;-68
2021/08/14 03:02:16;;;;;;;14.77;11.97;;;14.90;99.90;;;;;;5094705;28;20169;-67
2021/08/14 03:04:41;;;;;;;13.33;11.70;;;14.90;99.90;;;;;;5094255;28;20212;-67
2021/08/14 03:07:07;;;;;;;14.87;12.40;;;14.90;99.90;;;;;;5094570;28;20176;-66
2021/08/14 03:09:33;;;;;;;14.97;12.73;;;14.80;99.90;;;;;;5093892;28;20591;-67
2021/08/14 03:11:58;;;;;;;16.30;12.47;;;14.70;99.90;;;;;;5094366;28;20204;-67
2021/08/14 03:14:24;;;;;;;13.40;12.10;;;14.80;99.90;;;;;;5094097;28;20220;-67
2021/08/14 03:16:50;;;;;;;13.50;12.20;;;14.70;99.90;;;;;;5094595;28;20631;-67
2021/08/14 03:19:15;;;;;;;12.93;11.63;;;14.60;99.90;;;;;;5093827;28;20178;-66
2021/08/14 03:21:41;;;;;;;15.97;12.30;;;14.60;99.90;;;;;;5093029;28;20222;-66
2021/08/14 03:24:06;;;;;;;12.40;10.83;;;14.60;99.90;;;;;;5094231;28;20177;-67
2021/08/14 03:26:32;;;;;;;12.27;11.00;;;14.50;99.90;;;;;;5094057;28;20174;-67
2021/08/14 03:28:58;;;;;;;12.30;10.43;;;14.40;99.90;;;;;;5093890;28;20238;-67
2021/08/14 03:31:23;;;;;;;12.50;10.90;;;14.40;99.90;;;;;;5093542;28;20182;-67
2021/08/14 03:33:50;;;;;;;12.00;10.20;;;14.40;99.90;;;;;;5093797;28;20169;-67
2021/08/14 03:36:15;;;;;;;13.53;11.03;;;14.40;99.90;;;;;;5094311;28;20308;-67
2021/08/14 03:38:41;;;;;;;14.43;11.10;;;14.40;99.90;;;;;;5093515;28;20288;-66
2021/08/14 03:41:08;;;;;;;10.87;9.77;;;14.30;99.90;;;;;;5093460;28;20272;-67
2021/08/14 03:43:35;;;;;;;14.30;11.37;;;14.40;99.90;;;;;;5093458;28;20174;-67
2021/08/14 03:46:01;;;;;;;18.37;11.93;;;14.30;99.90;;;;;;5093863;28;20284;-67
2021/08/14 03:48:27;;;;;;;16.07;12.37;;;14.30;99.90;;;;;;5093517;28;20267;-67
2021/08/14 03:50:53;;;;;;;17.03;12.93;;;14.30;99.90;;;;;;5093335;28;20239;-67
2021/08/14 03:53:18;;;;;;;13.37;11.57;;;14.30;99.90;;;;;;5093236;28;20170;-67
2021/08/14 03:55:44;;;;;;;16.40;12.73;;;14.30;99.90;;;;;;5092913;28;20631;-67
2021/08/14 03:58:10;;;;;;;19.67;12.20;;;14.20;99.90;;;;;;5093629;28;20316;-67
2021/08/14 04:00:36;;;;;;;13.43;11.63;;;14.20;99.90;;;;;;5093010;28;20685;-67
2021/08/14 04:03:02;;;;;;;13.83;11.20;;;14.10;99.90;;;;;;5093266;28;20256;-67
2021/08/14 04:05:27;;;;;;;13.50;11.57;;;14.10;99.90;;;;;;5093192;28;20170;-67
2021/08/14 04:07:53;;;;;;;15.63;13.03;;;14.10;99.90;;;;;;5093186;28;20789;-67
2021/08/14 04:10:19;;;;;;;15.13;10.90;;;14.20;99.90;;;;;;5092659;28;20205;-67
2021/08/14 04:15:13;;;;;;;12.87;11.30;;;14.20;99.90;;;;;;5090285;28;20231;-65
2021/08/14 04:17:39;;;;;;;15.47;11.80;;;14.20;99.90;;;;;;5092949;28;20197;-65
2021/08/14 04:20:05;;;;;;;13.97;11.47;;;14.20;99.90;;;;;;5092661;28;20661;-66
2021/08/14 04:22:31;;;;;;;19.27;11.83;;;14.20;99.90;;;;;;5092050;28;20189;-66
2021/08/14 04:24:57;;;;;;;13.90;11.60;;;14.20;99.90;;;;;;5092699;28;20646;-66
2021/08/14 04:27:23;;;;;;;13.67;11.60;;;14.30;99.90;;;;;;5092800;28;20180;-66
2021/08/14 04:29:49;;;;;;;13.00;11.60;;;14.20;99.90;;;;;;5091539;28;20178;-66
2021/08/14 04:32:15;;;;;;;13.33;12.03;;;14.20;99.90;;;;;;5092735;28;20205;-66
2021/08/14 04:34:41;;;;;;;12.97;11.53;;;14.20;99.90;;;;;;5092671;28;20226;-65
2021/08/14 04:37:07;;;;;;;11.77;10.67;;;14.20;99.90;;;;;;5092843;28;20173;-65
2021/08/14 04:39:32;;;;;;;14.70;11.43;;;14.30;99.90;;;;;;5092075;28;20165;-66
2021/08/14 04:41:58;;;;;;;15.90;11.80;;;14.20;99.90;;;;;;5092725;28;20626;-66
2021/08/14 04:44:23;;;;;;;13.67;12.17;;;14.20;99.90;;;;;;5092356;28;20162;-66
2021/08/14 04:46:49;;;;;;;11.97;10.87;;;14.20;99.90;;;;;;5091959;28;20218;-66
2021/08/14 04:49:15;;;;;;;14.30;12.37;;;14.30;99.90;;;;;;5074051;28;20185;-66
2021/08/14 04:51:40;;;;;;;17.33;12.10;;;14.30;99.90;;;;;;5091839;28;20173;-66
2021/08/14 04:54:06;;;;;;;15.83;11.60;;;14.40;99.90;;;;;;5092391;28;20165;-66
2021/08/14 04:56:31;;;;;;;13.10;11.70;;;14.40;99.90;;;;;;5091994;28;20204;-66
2021/08/14 04:58:58;;;;;;;20.33;12.47;;;14.50;99.90;;;;;;5092238;28;20595;-66
2021/08/14 05:01:26;;;;;;;12.97;11.73;;;14.60;99.90;;;;;;5091445;28;20250;-66
2021/08/14 05:03:51;;;;;;;15.50;11.67;;;14.70;99.90;;;;;;5092147;28;20228;-65
2021/08/14 05:06:17;;;;;;;16.80;11.40;;;14.70;99.90;;;;;;5091734;28;20185;-66
2021/08/14 05:08:43;;;;;;;13.37;11.47;;;14.70;99.90;;;;;;5091244;28;20174;-66
2021/08/14 05:11:08;;;;;;;12.53;11.23;;;14.80;99.90;;;;;;5091759;28;20185;-65
2021/08/14 05:13:34;;;;;;;12.63;11.33;;;14.90;99.90;;;;;;5091704;28;20213;-65
2021/08/14 05:15:59;;;;;;;14.97;11.53;;;15.00;99.90;;;;;;5091748;28;20234;-65
2021/08/14 05:18:25;;;;;;;12.70;11.40;;;15.10;99.90;;;;;;5092144;28;20736;-65
2021/08/14 05:20:51;;;;;;;14.50;11.80;;;15.20;99.90;;;;;;5091276;28;20660;-66
2021/08/14 05:23:16;;;;;;;14.80;11.93;;;15.20;99.90;;;;;;5091756;28;20197;-66
2021/08/14 05:25:42;;;;;;;15.33;13.77;;;15.20;99.90;;;;;;5091536;28;20239;-66
2021/08/14 05:28:07;;;;;;;15.90;12.93;;;15.30;99.90;;;;;;5092176;28;20173;-66
2021/08/14 05:30:33;;;;;;;17.80;13.43;;;15.30;99.90;;;;;;5091190;28;20204;-65
2021/08/14 05:32:58;;;;;;;15.87;12.57;;;15.40;99.90;;;;;;5091613;28;20310;-66
2021/08/14 05:35:24;;;;;;;15.43;12.20;;;15.60;99.90;;;;;;5091258;28;20268;-66
2021/08/14 05:37:50;;;;;;;15.13;12.00;;;15.70;99.90;;;;;;5091563;28;20197;-66
2021/08/14 05:40:16;;;;;;;17.00;12.00;;;15.70;99.90;;;;;;5091031;28;20173;-66
2021/08/14 05:42:42;;;;;;;15.73;11.67;;;15.90;99.90;;;;;;5091405;28;20190;-65
2021/08/14 05:45:08;;;;;;;14.17;12.67;;;16.00;99.90;;;;;;5091353;28;20226;-66
2021/08/14 05:47:34;;;;;;;19.60;12.30;;;16.20;99.90;;;;;;5091021;28;20268;-66
2021/08/14 05:49:59;;;;;;;15.57;13.70;;;16.40;99.90;;;;;;5091232;28;20264;-66
2021/08/14 05:52:25;;;;;;;15.13;13.23;;;16.70;99.90;;;;;;5091295;28;20283;-66
2021/08/14 05:54:50;;;;;;;13.33;10.83;;;17.00;99.90;;;;;;5091509;28;20189;-66
2021/08/14 05:57:16;;;;;;;12.47;11.00;;;17.30;99.90;;;;;;5090934;28;20216;-66
2021/08/14 05:59:42;;;;;;;14.63;11.17;;;17.50;99.90;;;;;;5091211;28;20271;-66
2021/08/14 06:02:07;;;;;;;13.50;10.53;;;17.70;99.90;;;;;;5091120;28;20258;-66
2021/08/14 06:04:33;;;;;;;15.57;10.73;;;18.00;99.90;;;;;;5091720;28;20173;-66
2021/08/14 06:06:59;;;;;;;11.67;10.50;;;18.20;99.90;;;;;;5091487;28;20192;-66
2021/08/14 06:09:25;;;;;;;14.97;10.67;;;18.40;99.90;;;;;;5088885;28;20658;-66
2021/08/14 06:11:51;;;;;;;10.40;9.17;;;18.70;99.90;;;;;;5090955;28;20575;-65
2021/08/14 06:14:17;;;;;;;10.40;9.27;;;19.00;99.90;;;;;;5091010;28;20193;-66
2021/08/14 06:16:43;;;;;;;10.60;9.47;;;19.50;99.90;;;;;;5091267;28;20178;-66
2021/08/14 06:19:08;;;;;;;9.90;8.97;;;20.10;99.90;;;;;;5092735;28;20244;-66
2021/08/14 06:21:34;;;;;;;10.70;7.83;;;20.60;99.90;;;;;;5094597;28;20181;-66
2021/08/14 06:24:00;;;;;;;12.93;8.15;;;20.80;99.90;;;;;;5094737;28;20200;-66
2021/08/14 06:26:26;;;;;;;8.68;7.10;;;21.00;99.90;;;;;;5095020;28;20197;-66
2021/08/14 06:28:51;;;;;;;8.57;7.18;;;21.10;99.90;;;;;;5094802;28;20285;-66
2021/08/14 06:31:17;;;;;;;7.80;7.13;;;21.00;99.90;;;;;;5094761;28;20185;-66
2021/08/14 06:33:43;;;;;;;9.95;6.93;;;21.30;99.90;;;;;;5094674;28;20197;-66
2021/08/14 06:36:09;;;;;;;7.80;7.00;;;21.60;99.90;;;;;;5095133;28;20182;-66
2021/08/14 06:38:38;;;;;;;8.32;6.60;;;21.90;99.90;;;;;;5094520;28;20681;-66
2021/08/14 06:41:04;;;;;;;8.60;6.53;;;22.10;99.90;;;;;;5094574;28;20549;-66
2021/08/14 06:43:29;;;;;;;8.40;6.15;;;22.30;99.90;;;;;;5094287;28;20189;-66
2021/08/14 06:45:55;;;;;;;8.60;6.38;;;22.40;99.90;;;;;;5094690;28;20257;-66
2021/08/14 06:48:21;;;;;;;8.23;7.03;;;22.20;99.90;;;;;;5094524;28;20198;-66
2021/08/14 06:50:46;;;;;;;8.93;6.63;;;22.30;99.90;;;;;;5094122;28;20201;-66
2021/08/14 06:53:12;;;;;;;10.20;6.57;;;22.30;99.90;;;;;;5094532;28;20197;-65
2021/08/14 06:55:38;;;;;;;7.80;7.00;;;22.50;99.90;;;;;;5094191;28;20177;-66
2021/08/14 06:58:03;;;;;;;7.03;5.93;;;21.90;99.90;;;;;;5094600;28;20208;-66
2021/08/14 07:00:29;;;;;;;9.93;6.28;;;21.90;99.90;;;;;;5094098;28;20696;-65
2021/08/14 07:02:55;;;;;;;10.05;6.18;;;22.30;99.90;;;;;;5094573;28;20561;-66
2021/08/14 07:05:21;;;;;;;7.15;6.03;;;22.60;99.90;;;;;;5094132;28;20174;-66
2021/08/14 07:07:46;;;;;;;7.45;5.63;;;23.00;99.90;;;;;;5094468;28;20583;-65
2021/08/14 07:10:12;;;;;;;8.27;5.80;;;22.90;99.90;;;;;;5094121;28;20178;-66
2021/08/14 07:12:38;;;;;;;8.63;6.07;;;23.20;99.90;;;;;;5094712;28;20717;-65
2021/08/14 07:15:06;;;;;;;7.60;5.45;;;23.60;99.90;;;;;;5094096;28;20193;-65
2021/08/14 07:17:32;;;;;;;6.93;5.63;;;23.70;99.90;;;;;;5093972;28;20216;-66
2021/08/14 07:19:58;;;;;;;6.72;5.30;;;24.00;99.90;;;;;;5093860;28;20180;-66
2021/08/14 07:22:24;;;;;;;8.15;6.03;;;24.40;99.90;;;;;;5094075;28;20186;-66
2021/08/14 07:24:49;;;;;;;9.38;6.20;;;24.70;99.90;;;;;;5093895;28;20185;-66
2021/08/14 07:27:15;;;;;;;11.40;6.72;;;24.60;99.90;;;;;;5094116;28;20169;-66
2021/08/14 07:29:41;;;;;;;6.38;5.60;;;24.30;99.90;;;;;;5092659;28;20213;-66
2021/08/14 07:32:07;;;;;;;6.97;5.88;;;24.10;99.90;;;;;;5093648;28;20189;-66
2021/08/14 07:34:32;;;;;;;8.43;6.80;;;24.30;99.90;;;;;;5093591;28;20184;-65
2021/08/14 07:36:58;;;;;;;6.53;5.93;;;24.00;99.90;;;;;;5093900;28;20158;-67
2021/08/14 07:39:24;;;;;;;5.95;5.30;;;24.50;99.90;;;;;;5093026;28;20227;-66
2021/08/14 07:41:49;;;;;;;5.95;5.30;;;24.40;99.90;;;;;;5093662;28;20171;-66
2021/08/14 07:44:15;;;;;;;8.82;5.57;;;24.60;99.90;;;;;;5093651;28;20176;-66
2021/08/14 07:46:41;;;;;;;10.32;6.78;;;25.20;99.90;;;;;;5093585;28;20177;-66
2021/08/14 07:49:06;;;;;;;7.38;5.50;;;25.50;99.90;;;;;;5093368;28;20591;-66
2021/08/14 07:51:32;;;;;;;9.60;6.47;;;25.60;99.90;;;;;;5093138;28;20216;-66
2021/08/14 07:53:57;;;;;;;7.53;6.00;;;25.20;99.90;;;;;;5075457;28;20694;-66
2021/08/14 07:56:24;;;;;;;12.27;6.40;;;25.10;99.90;;;;;;5093659;28;20162;-66
2021/08/14 07:58:50;;;;;;;9.90;5.45;;;25.30;99.90;;;;;;5093144;28;20209;-66
2021/08/14 08:01:15;;;;;;;9.82;5.47;;;25.70;99.90;;;;;;5093106;28;20165;-66
2021/08/14 08:03:41;;;;;;;8.27;5.03;;;25.70;99.90;;;;;;5093320;28;20186;-66
2021/08/14 08:06:07;;;;;;;7.65;5.38;;;26.10;99.90;;;;;;5091790;28;20180;-66
2021/08/14 08:08:34;;;;;;;6.20;5.38;;;26.40;99.90;;;;;;5092582;28;20200;-66
2021/08/14 08:11:00;;;;;;;11.25;5.32;;;26.50;99.90;;;;;;5092912;28;20216;-66
2021/08/14 08:13:26;;;;;;;9.10;5.68;;;26.80;99.90;;;;;;5092886;28;20197;-66
2021/08/14 08:15:51;;;;;;;7.97;5.72;;;26.60;99.90;;;;;;5093039;28;20202;-66
2021/08/14 08:18:17;;;;;;;6.20;5.60;;;26.90;99.90;;;;;;5092202;28;20220;-66
2021/08/14 08:20:43;;;;;;;6.95;5.40;;;26.70;99.90;;;;;;5073258;28;20186;-66
2021/08/14 08:23:08;;;;;;;8.00;5.88;;;26.50;99.90;;;;;;5092957;28;20200;-66
2021/08/14 08:25:34;;;;;;;6.78;6.07;;;26.40;99.90;;;;;;5092426;28;20550;-66
2021/08/14 08:28:03;;;;;;;7.20;5.00;;;26.30;99.90;;;;;;5092947;28;20248;-66
2021/08/14 08:30:30;;;;;;;7.97;5.50;;;26.50;99.90;;;;;;5092259;28;20193;-66
2021/08/14 08:32:55;;;;;;;8.82;5.70;;;26.80;99.90;;;;;;5091977;28;20194;-67
2021/08/14 08:35:21;;;;;;;7.00;4.95;;;27.20;99.90;;;;;;5092283;28;20176;-67
2021/08/14 08:37:47;;;;;;;6.03;4.88;;;27.60;99.90;;;;;;5092195;28;20247;-66
2021/08/14 08:40:14;;;;;;;7.07;5.43;;;26.70;99.90;;;;;;5092383;28;20533;-67
2021/08/14 08:42:41;;;;;;;7.28;5.32;;;26.10;99.90;;;;;;5090848;28;20197;-66
2021/08/14 08:45:07;;;;;;;5.65;4.93;;;25.40;99.90;;;;;;5092639;28;20180;-66
2021/08/14 08:47:37;;;;;;;6.90;4.80;;;25.40;99.90;;;;;;5091460;28;20185;-66
2021/08/14 08:50:07;;;;;;;8.90;5.30;;;25.90;99.90;;;;;;5092168;28;20197;-66
2021/08/14 08:52:33;;;;;;;5.32;4.82;;;26.20;99.90;;;;;;5091874;28;20229;-66
2021/08/14 08:54:59;;;;;;;6.75;4.53;;;26.50;99.90;;;;;;5092495;28;20582;-66
2021/08/14 08:57:25;;;;;;;5.35;4.85;;;26.80;99.90;;;;;;5091027;28;20201;-66
2021/08/14 08:59:51;;;;;;;5.47;4.75;;;27.10;99.90;;;;;;5091019;28;20249;-66
2021/08/14 09:02:34;;;;;;;6.65;4.72;;;26.90;99.90;;;;;;5092478;28;20635;-66
2021/08/14 09:05:18;;;;;;;6.78;4.65;;;26.60;99.90;;;;;;5092268;28;20173;-66
2021/08/14 09:07:47;;;;;;;7.03;5.07;;;27.00;99.90;;;;;;5092232;28;20177;-66
2021/08/14 09:10:16;;;;;;;5.28;4.78;;;27.00;99.90;;;;;;5090909;28;20170;-66
2021/08/14 09:12:43;;;;;;;6.85;4.78;;;26.40;99.90;;;;;;5092146;28;20213;-66
2021/08/14 09:15:16;;;;;;;5.30;4.43;;;26.60;99.90;;;;;;5092123;28;20200;-66
2021/08/14 09:17:43;;;;;;;5.90;5.40;;;27.30;99.90;;;;;;5091990;28;20877;-66
2021/08/14 09:20:19;;;;;;;6.18;5.10;;;27.20;99.90;;;;;;5091589;28;20170;-66
2021/08/14 09:23:02;;;;;;;6.47;5.47;;;27.30;99.90;;;;;;5091936;28;20192;-66
2021/08/14 09:25:40;;;;;;;6.10;5.55;;;27.30;99.90;;;;;;5091705;28;20181;-67
2021/08/14 09:28:07;;;;;;;9.18;5.90;;;27.60;99.90;;;;;;5092303;28;20705;-66
2021/08/14 09:30:46;;;;;;;9.00;5.15;;;27.50;99.90;;;;;;5091457;28;20267;-66
2021/08/14 09:33:14;;;;;;;6.53;5.10;;;27.70;99.90;;;;;;5091980;28;20701;-66
2021/08/14 09:35:44;;;;;;;5.63;4.97;;;28.10;99.90;;;;;;5090836;28;20184;-66
2021/08/14 09:38:12;;;;;;;7.40;5.28;;;28.30;99.90;;;;;;5091909;28;20208;-66
2021/08/14 09:40:47;;;;;;;6.47;5.10;;;28.60;99.90;;;;;;5091155;28;20182;-66
2021/08/14 09:43:14;;;;;;;5.97;4.72;;;28.60;99.90;;;;;;5091645;28;20700;-66
2021/08/14 09:45:54;;;;;;;8.63;5.93;;;28.60;99.90;;;;;;5091276;28;20307;-66
2021/08/14 09:48:22;;;;;;;6.18;5.57;;;28.60;99.90;;;;;;5091641;28;20705;-66
2021/08/14 09:50:48;;;;;;;6.88;6.10;;;28.90;99.90;;;;;;5091105;28;20177;-66
2021/08/14 09:53:17;;;;;;;6.53;5.65;;;28.70;99.90;;;;;;5091123;28;20197;-66
2021/08/14 09:55:46;;;;;;;7.50;5.40;;;29.00;99.90;;;;;;5091293;28;20558;-66
2021/08/14 09:58:15;;;;;;;6.32;5.13;;;29.10;99.90;;;;;;5073492;28;20208;-66
2021/08/14 10:00:43;;;;;;;6.20;5.20;;;29.40;99.90;;;;;;5090852;28;20331;-65
2021/08/14 10:03:12;;;;;;;6.85;5.65;;;28.90;99.90;;;;;;5091349;28;20201;-66
2021/08/14 10:05:38;;;;;;;8.52;5.75;;;28.70;99.90;;;;;;5091335;28;20760;-66
2021/08/14 10:08:05;;;;;;;7.60;4.97;;;29.00;99.90;;;;;;5091747;28;20197;-66
2021/08/14 10:10:32;;;;;;;5.50;5.00;;;29.30;99.90;;;;;;5090138;28;20285;-66
2021/08/14 10:12:58;;;;;;;8.38;4.82;;;29.50;99.90;;;;;;5091418;28;20686;-66
2021/08/14 10:15:24;;;;;;;8.82;5.50;;;29.50;99.90;;;;;;5104520;22;20635;-68
2021/08/14 10:17:50;;;;;;;7.07;6.20;;;29.20;99.90;;;;;;5091120;28;20197;-68
2021/08/14 10:20:16;;;;;;;7.13;5.68;;;28.30;99.90;;;;;;5090636;28;20634;-68
2021/08/14 10:22:44;;;;;;;6.07;5.18;;;27.90;99.90;;;;;;5090762;28;20169;-68
2021/08/14 10:25:17;;;;;;;6.22;5.63;;;28.40;99.90;;;;;;5090841;28;20242;-68
2021/08/14 10:27:58;;;;;;;8.40;6.82;;;29.00;99.90;;;;;;5089901;28;20604;-67
2021/08/14 10:30:49;;;;;;;6.32;4.80;;;29.10;99.90;;;;;;5090923;28;20179;-68
2021/08/14 10:33:27;;;;;;;6.95;4.90;;;29.50;99.90;;;;;;5090771;28;20177;-68
2021/08/14 10:35:54;;;;;;;5.50;4.88;;;29.80;99.90;;;;;;5091220;28;20165;-68
2021/08/14 10:38:37;;;;;;;8.90;4.70;;;30.20;99.90;;;;;;5090957;28;20205;-68
2021/08/14 10:41:03;;;;;;;6.20;5.45;;;29.40;99.90;;;;;;5091073;28;20536;-68
2021/08/14 10:43:53;;;;;;;7.03;4.93;;;29.00;99.90;;;;;;5090611;28;20173;-67
2021/08/14 10:46:35;;;;;;;7.68;4.95;;;29.40;99.90;;;;;;5091264;28;20299;-68
2021/08/14 10:49:00;;;;;;;7.68;5.32;;;29.30;99.90;;;;;;5091079;28;20230;-67
2021/08/14 10:51:51;;;;;;;5.93;4.65;;;29.40;99.90;;;;;;5090736;28;20178;-68
2021/08/14 10:54:33;;;;;;;5.78;5.20;;;28.80;99.90;;;;;;5090643;28;20233;-67
2021/08/14 10:57:00;;;;;;;5.35;4.70;;;28.70;99.90;;;;;;5091073;28;20264;-68
2021/08/14 10:59:35;;;;;;;5.40;4.38;;;28.60;99.90;;;;;;5090310;28;20201;-67
2021/08/14 11:02:10;;;;;;;6.70;5.70;;;28.40;99.90;;;;;;5090715;28;20173;-68
2021/08/14 11:04:40;;;;;;;8.00;5.38;;;28.80;99.90;;;;;;5090209;28;20193;-68
2021/08/14 11:07:21;;;;;;;5.88;4.78;;;29.10;99.90;;;;;;5093970;28;20162;-68
2021/08/14 11:09:52;;;;;;;6.60;4.55;;;29.20;99.90;;;;;;5093584;28;20256;-68
2021/08/14 11:12:39;;;;;;;7.53;4.68;;;29.30;99.90;;;;;;5094218;28;20173;-67
2021/08/14 11:15:18;;;;;;;5.60;5.10;;;29.00;99.90;;;;;;5072756;28;20210;-68
2021/08/14 11:17:46;;;;;;;5.10;4.60;;;28.70;99.90;;;;;;5073765;28;20201;-68
2021/08/14 11:20:21;;;;;;;5.40;4.88;;;29.30;99.90;;;;;;5093742;28;20718;-68
2021/08/14 11:22:49;;;;;;;5.88;4.90;;;29.60;99.90;;;;;;5094123;28;20190;-66
2021/08/14 11:25:40;;;;;;;4.88;4.47;;;29.30;99.90;;;;;;5073752;28;20601;-68
2021/08/14 11:28:11;;;;;;;5.82;4.60;;;29.60;99.90;;;;;;5083907;28;20719;-68
2021/08/14 11:30:46;;;;;;;6.65;4.75;;;29.50;99.90;;;;;;5093270;28;20184;-68
2021/08/14 11:33:15;;;;;;;6.15;5.55;;;29.90;99.90;;;;;;5093464;28;20196;-67
2021/08/14 11:35:42;;;;;;;5.20;4.70;;;30.10;99.90;;;;;;5093464;28;20177;-68
2021/08/14 11:38:16;;;;;;;6.63;4.93;;;29.90;99.90;;;;;;5093626;28;20288;-68
2021/08/14 11:40:43;;;;;;;5.07;4.57;;;29.40;99.90;;;;;;5093373;28;20176;-68
2021/08/14 11:43:14;;;;;;;5.20;4.78;;;29.00;99.90;;;;;;5093414;28;20173;-68
2021/08/14 11:45:46;;;;;;;5.50;5.00;;;28.60;99.90;;;;;;5093383;28;20169;-69
2021/08/14 11:48:17;;;;;;;6.75;6.05;;;28.50;99.90;;;;;;5093688;28;20615;-67
2021/08/14 11:50:44;;;;;;;5.03;4.57;;;28.10;99.90;;;;;;5093592;28;20302;-68
2021/08/14 11:53:12;;;;;;;9.20;5.75;;;27.70;99.90;;;;;;5093345;28;20670;-69
2021/08/14 11:55:38;;;;;;;6.22;4.78;;;27.60;99.90;;;;;;5093022;28;20215;-67
2021/08/14 11:58:05;;;;;;;6.03;5.35;;;27.80;99.90;;;;;;5093554;28;20197;-69
2021/08/14 12:00:35;;;;;;;5.55;5.05;;;27.70;99.90;;;;;;5092704;28;20216;-68
2021/08/14 12:03:15;;;;;;;6.68;5.90;;;27.80;99.90;;;;;;5093454;28;20161;-69
2021/08/14 12:05:44;;;;;;;5.63;5.13;;;27.70;99.90;;;;;;5093011;28;20173;-69
2021/08/14 12:08:27;;;;;;;5.93;5.15;;;27.60;99.90;;;;;;5092798;28;20186;-68
2021/08/14 12:10:53;;;;;;;6.55;4.68;;;27.40;99.90;;;;;;5091266;28;20177;-68
2021/08/14 12:13:20;;;;;;;6.82;4.97;;;27.50;99.90;;;;;;5092710;28;20234;-68
2021/08/14 12:15:46;;;;;;;6.43;5.80;;;27.50;99.90;;;;;;5073525;28;20193;-68
2021/08/14 12:18:12;;;;;;;7.63;5.85;;;27.70;99.90;;;;;;5091911;28;20352;-67
2021/08/14 12:20:42;;;;;;;5.85;5.25;;;28.00;99.90;;;;;;5091561;28;20395;-68
2021/08/14 12:23:24;;;;;;;5.82;4.65;;;28.60;99.90;;;;;;5092633;28;20177;-68
2021/08/14 12:25:59;;;;;;;4.93;4.53;;;29.10;99.90;;;;;;5092763;28;20173;-68
2021/08/14 12:28:27;;;;;;;5.68;4.70;;;29.30;99.90;;;;;;5092416;28;20696;-68
2021/08/14 12:30:53;;;;;;;5.25;4.50;;;29.60;99.90;;;;;;5092027;28;20220;-68
2021/08/14 12:33:28;;;;;;;4.82;4.32;;;29.70;99.90;;;;;;5091120;28;20181;-67
2021/08/14 12:36:04;;;;;;;5.10;4.60;;;29.90;99.90;;;;;;5083231;28;20204;-68
2021/08/14 12:38:33;;;;;;;6.72;5.15;;;29.80;99.90;;;;;;5091889;28;20193;-68
2021/08/14 12:41:15;;;;;;;4.80;4.30;;;29.60;99.90;;;;;;5091082;28;20185;-67
2021/08/14 12:43:49;;;;;;;5.93;5.10;;;29.50;99.90;;;;;;5092179;28;20197;-67